.
WxDataArchive / Data Records for 2006-09-18
2006-09-17 September 2006 2006-09-19

Data Records for Monday, 18 September 2006

Time	Temp	Chill	HIndex	Humid	Dewpt	 Wind 	HiWind	WindDir	Rain 	Barom 
-----	----	-----	------	-----	-----	------	------	-------	-----	----- 
00:00	74.2	74.2	74.2	67	62.5	1	5	248	0.00	29.695 
00:05	74.4	74.4	74.4	67	62.7	2	10	248	0.00	29.695 
00:10	74.4	74.4	74.4	67	62.7	3	9	90	0.00	29.695 
00:15	74.6	74.6	74.6	67	62.9	3	11	248	0.00	29.687 
00:20	74.6	74.6	74.6	67	62.9	3	9	270	0.00	29.687 
00:25	74.6	74.6	74.6	67	62.9	3	10	270	0.00	29.687 
00:30	74.4	74.4	74.4	67	62.7	3	10	248	0.00	29.685 
00:35	74.4	74.4	74.4	68	63.1	2	7	248	0.00	29.685 
00:40	74.0	74.0	74.0	69	63.2	3	7	248	0.00	29.685 
00:45	73.9	73.9	73.9	70	63.5	2	5	248	0.00	29.683 
00:50	73.7	73.7	73.7	70	63.3	2	4	248	0.00	29.683 
00:55	73.7	73.7	73.7	70	63.3	1	4	248	0.00	29.683 
01:00	73.7	73.7	73.7	71	63.7	2	4	270	0.00	29.682 
01:05	73.3	73.3	73.3	72	63.7	1	4	248	0.00	29.682 
01:10	73.0	73.0	73.0	73	63.8	1	5	248	0.00	29.682 
01:15	72.8	72.8	72.8	74	64.0	1	3	225	0.00	29.686 
01:20	72.5	72.5	72.5	74	63.7	1	3	248	0.00	29.686 
01:25	72.3	72.3	72.3	75	63.9	1	3	248	0.00	29.686 
01:30	72.1	72.1	72.1	76	64.1	1	4	248	0.00	29.690 
01:35	72.1	72.1	72.1	76	64.1	1	4	248	0.00	29.690 
01:40	72.1	72.1	72.1	76	64.1	1	4	270	0.00	29.690 
01:45	72.1	72.1	72.1	76	64.1	0	2	248	0.00	29.688 
01:50	72.0	72.0	72.0	77	64.4	2	7	248	0.00	29.688 
01:55	72.0	72.0	72.0	78	64.8	2	5	270	0.00	29.688 
02:00	71.8	71.8	71.8	79	64.9	1	5	248	0.00	29.687 
02:05	71.6	71.6	71.6	80	65.1	2	6	270	0.00	29.687 
02:10	71.5	71.5	71.5	81	65.4	2	5	248	0.00	29.687 
02:15	71.1	71.1	71.1	83	65.7	1	4	248	0.00	29.676 
02:20	70.8	70.8	70.8	84	65.7	2	4	248	0.00	29.676 
02:25	70.6	70.6	70.6	84	65.5	2	5	248	0.00	29.676 
02:30	70.8	70.8	70.8	84	65.7	2	9	248	0.00	29.675 
02:35	70.8	70.8	70.8	84	65.7	1	5	248	0.00	29.675 
02:40	70.8	70.8	70.8	84	65.7	2	7	248	0.00	29.675 
02:45	70.9	70.9	70.9	84	65.8	2	6	270	0.00	29.666 
02:50	71.1	71.1	71.1	83	65.7	2	7	270	0.00	29.666 
02:55	71.1	71.1	71.1	83	65.7	2	5	248	0.00	29.666 
03:00	71.1	71.1	71.1	83	65.7	2	6	248	0.00	29.663 
03:05	71.1	71.1	71.1	83	65.7	2	7	248	0.00	29.663 
03:10	71.1	71.1	71.1	83	65.7	1	5	248	0.00	29.663 
03:15	71.3	71.3	71.3	82	65.5	2	6	248	0.00	29.652 
03:20	71.3	71.3	71.3	82	65.5	2	7	248	0.00	29.652 
03:25	71.3	71.3	71.3	82	65.5	2	7	248	0.00	29.652 
03:30	71.3	71.3	71.3	82	65.5	2	6	248	0.00	29.654 
03:35	71.1	71.1	71.1	82	65.3	1	4	248	0.00	29.654 
03:40	71.1	71.1	71.1	82	65.3	2	6	248	0.00	29.654 
03:45	71.1	71.1	71.1	82	65.3	1	4	270	0.00	29.653 
03:50	71.1	71.1	71.1	82	65.3	2	4	270	0.00	29.653 
03:55	71.1	71.1	71.1	82	65.3	2	5	270	0.00	29.653 
04:00	71.1	71.1	71.1	82	65.3	1	5	248	0.00	29.659 
04:05	71.1	71.1	71.1	83	65.7	2	4	248	0.00	29.659 
04:10	71.1	71.1	71.1	83	65.7	2	6	270	0.00	29.659 
04:15	71.1	71.1	71.1	83	65.7	1	4	248	0.00	29.659 
04:20	71.1	71.1	71.1	83	65.7	1	4	248	0.00	29.659 
04:25	71.1	71.1	71.1	83	65.7	2	5	248	0.00	29.659 
04:30	70.9	70.9	70.9	83	65.5	1	3	270	0.00	29.652 
04:35	71.1	71.1	71.1	83	65.7	2	6	248	0.00	29.652 
04:40	71.1	71.1	71.1	83	65.7	1	3	248	0.00	29.652 
04:45	71.1	71.1	71.1	83	65.7	2	4	248	0.00	29.655 
04:50	71.1	71.1	71.1	84	66.0	1	9	248	0.00	29.655 
04:55	71.1	71.1	71.1	84	66.0	2	5	248	0.00	29.655 
05:00	71.3	71.3	71.3	84	66.2	2	6	248	0.00	29.654 
05:05	71.3	71.3	71.3	83	65.9	2	4	248	0.00	29.654 
05:10	71.3	71.3	71.3	84	66.2	2	5	248	0.00	29.654 
05:15	71.3	71.3	71.3	84	66.2	2	3	270	0.00	29.653 
05:20	71.1	71.1	71.1	84	66.0	2	5	248	0.00	29.653 
05:25	70.9	70.9	70.9	86	66.5	2	5	248	0.03	29.653 
05:30	70.4	70.4	70.4	88	66.7	1	4	248	0.00	29.653 
05:35	70.1	70.1	70.1	89	66.7	1	3	248	0.00	29.653 
05:40	69.8	69.8	69.8	90	66.7	0	2	248	0.00	29.653 
05:45	69.6	69.6	69.6	91	66.8	1	3	270	0.00	29.653 
05:50	69.4	69.4	69.4	92	67.0	2	5	270	0.00	29.653 
05:55	69.4	69.4	69.4	92	67.0	1	3	270	0.00	29.653 
06:00	69.4	69.4	69.4	92	67.0	1	4	248	0.00	29.654 
06:05	69.3	69.3	69.3	92	66.9	1	2	248	0.00	29.654 
06:10	69.1	69.1	69.1	93	67.0	1	3	248	0.01	29.654 
06:15	69.1	69.1	69.1	93	67.0	2	7	248	0.00	29.654 
06:20	68.9	68.9	68.9	93	66.8	1	4	248	0.00	29.654 
06:25	68.9	68.9	68.9	93	66.8	1	4	248	0.00	29.654 
06:30	68.9	68.9	68.9	94	67.1	1	3	248	0.01	29.652 
06:35	68.8	68.8	68.8	94	67.0	0	1	248	0.02	29.652 
06:40	68.8	68.8	68.8	94	67.0	0	2	248	0.02	29.652 
06:45	68.6	68.6	68.6	94	66.8	0	3	270	0.05	29.657 
06:50	68.6	68.6	68.6	94	66.8	0	3	270	0.07	29.657 
06:55	68.4	68.4	68.4	95	66.9	1	3	248	0.06	29.657 
07:00	68.3	68.3	68.3	95	66.8	0	2	248	0.06	29.651 
07:05	68.3	68.3	68.3	95	66.8	0	3	248	0.05	29.651 
07:10	68.3	68.3	68.3	95	66.8	0	2	248	0.03	29.651 
07:15	68.3	68.3	68.3	95	66.8	0	1	248	0.01	29.646 
07:20	68.1	68.1	68.1	95	66.6	0	1	248	0.00	29.646 
07:25	68.1	68.1	68.1	96	66.9	0	1	248	0.00	29.646 
07:30	68.1	68.1	68.1	96	66.9	0	1	248	0.00	29.658 
07:35	68.1	68.1	68.1	96	66.9	0	2	248	0.00	29.658 
07:40	68.1	68.1	68.1	96	66.9	0	1	248	0.00	29.658 
07:45	68.1	68.1	68.1	96	66.9	0	1	248	0.00	29.662 
07:50	68.1	68.1	68.1	96	66.9	0	2	248	0.00	29.662 
07:55	68.1	68.1	68.1	96	66.9	0	1	248	0.00	29.662 
08:00	68.1	68.1	68.1	96	66.9	0	2	248	0.00	29.658 
08:05	68.1	68.1	68.1	96	66.9	0	2	248	0.00	29.658 
08:10	68.1	68.1	68.1	96	66.9	0	1	248	0.00	29.658 
08:15	68.1	68.1	68.1	96	66.9	0	2	248	0.01	29.660 
08:20	68.1	68.1	68.1	96	66.9	0	1	248	0.00	29.660 
08:25	68.1	68.1	68.1	96	66.9	0	2	248	0.01	29.660 
08:30	67.9	67.9	67.9	96	66.7	1	5	248	0.00	29.666 
08:35	66.6	66.6	66.6	95	65.1	1	4	292	0.00	29.666 
08:40	66.0	66.0	66.0	95	64.5	0	2	292	0.00	29.666 
08:45	65.6	65.6	65.6	95	64.1	0	1	292	0.00	29.676 
08:50	65.3	65.3	65.3	94	63.5	0	4	270	0.00	29.676 
08:55	64.8	64.8	64.8	94	63.0	1	2	270	0.00	29.676 
09:00	64.7	64.7	64.7	94	62.9	0	2	270	0.01	29.670 
09:05	64.5	64.5	64.5	94	62.7	0	2	270	0.00	29.670 
09:10	64.5	64.5	64.5	95	63.0	0	1	292	0.00	29.670 
09:15	64.3	64.3	64.3	95	62.8	0	1	292	0.00	29.677 
09:20	64.3	64.3	64.3	95	62.8	0	1	292	0.00	29.677 
09:25	64.0	64.0	64.0	95	62.5	0	2	292	0.00	29.677 
09:30	63.9	63.9	63.9	95	62.4	0	2	315	0.00	29.682 
09:35	63.7	63.7	63.7	95	62.2	1	3	315	0.01	29.682 
09:40	63.4	63.4	63.4	94	61.6	0	2	315	0.01	29.682 
09:45	63.4	63.4	63.4	95	61.9	0	1	315	0.01	29.686 
09:50	63.2	63.2	63.2	95	61.7	0	1	315	0.01	29.686 
09:55	63.2	63.2	63.2	95	61.7	0	1	315	0.00	29.686 
10:00	63.4	63.4	63.4	95	61.9	0	1	315	0.01	29.684 
10:05	63.2	63.2	63.2	95	61.7	0	2	315	0.00	29.684 
10:10	63.2	63.2	63.2	96	62.0	0	1	315	0.00	29.684 
10:15	63.2	63.2	63.2	96	62.0	0	2	315	0.00	29.694 
10:20	63.1	63.1	63.1	96	61.9	0	1	315	0.01	29.694 
10:25	62.9	62.9	62.9	95	61.4	0	2	315	0.00	29.694 
10:30	62.6	62.6	62.6	95	61.1	0	2	315	0.01	29.697 
10:35	62.3	62.3	62.3	95	60.8	1	2	315	0.03	29.697 
10:40	62.1	62.1	62.1	95	60.6	0	1	315	0.02	29.697 
10:45	62.0	62.0	62.0	95	60.5	0	3	270	0.05	29.704 
10:50	62.0	62.0	62.0	95	60.5	0	1	292	0.01	29.704 
10:55	61.6	61.6	61.6	95	60.2	1	4	292	0.03	29.704 
11:00	61.2	61.2	61.2	95	59.8	1	2	292	0.02	29.719 
11:05	60.9	60.9	60.9	95	59.5	0	1	292	0.02	29.719 
11:10	60.9	60.9	60.9	95	59.5	0	1	292	0.01	29.719 
11:15	60.7	60.7	60.7	95	59.3	0	1	292	0.00	29.721 
11:20	60.7	60.7	60.7	95	59.3	0	2	292	0.01	29.721 
11:25	60.7	60.7	60.7	96	59.6	0	1	292	0.00	29.721 
11:30	60.7	60.7	60.7	96	59.6	0	1	292	0.00	29.725 
11:35	60.9	60.9	60.9	96	59.7	0	1	292	0.00	29.725 
11:40	61.0	61.0	61.0	96	59.8	0	0	---	0.00	29.725 
11:45	61.2	61.2	61.2	96	60.0	0	1	292	0.00	29.726 
11:50	61.2	61.2	61.2	96	60.0	0	1	292	0.01	29.726 
11:55	61.5	61.5	61.5	96	60.3	0	1	292	0.00	29.726 
12:00	61.5	61.5	61.5	96	60.3	0	1	292	0.00	29.724 
12:05	61.5	61.5	61.5	96	60.3	0	1	292	0.00	29.724 
12:10	61.2	61.2	61.2	96	60.0	0	2	315	0.00	29.724 
12:15	60.9	60.9	60.9	95	59.5	0	3	315	0.00	29.718 
12:20	60.1	60.1	60.1	94	58.4	1	3	292	0.00	29.718 
12:25	59.9	59.9	59.9	94	58.2	1	2	315	0.00	29.718 
12:30	59.8	59.8	59.8	94	58.1	0	2	315	0.00	29.722 
12:35	59.6	59.6	59.6	94	57.9	1	2	315	0.00	29.722 
12:40	59.9	59.9	59.9	95	58.5	0	1	315	0.00	29.722 
12:45	59.8	59.8	59.8	94	58.1	0	2	315	0.00	29.719 
12:50	60.1	60.1	60.1	95	58.7	0	1	315	0.00	29.719 
12:55	59.9	59.9	59.9	94	58.2	0	2	315	0.00	29.719 
13:00	59.8	59.8	59.8	93	57.8	1	2	270	0.00	29.721 
13:05	59.6	59.6	59.6	92	57.3	0	2	270	0.00	29.721 
13:10	59.6	59.6	59.6	92	57.3	0	2	292	0.00	29.721 
13:15	59.9	59.9	59.9	93	57.9	0	1	292	0.00	29.724 
13:20	59.9	59.9	59.9	92	57.6	0	1	292	0.00	29.724 
13:25	59.8	59.8	59.8	91	57.2	0	2	292	0.00	29.724 
13:30	59.6	59.6	59.6	91	57.0	0	2	292	0.00	29.726 
13:35	59.3	59.3	59.3	89	56.1	0	2	315	0.00	29.726 
13:40	59.5	59.5	59.5	90	56.6	0	1	315	0.01	29.726 
13:45	59.5	59.5	59.5	91	56.9	0	1	315	0.00	29.731 
13:50	59.3	59.3	59.3	91	56.7	0	1	315	0.00	29.731 
13:55	59.2	59.2	59.2	89	56.0	1	2	315	0.00	29.731 
14:00	59.2	59.2	59.2	90	56.3	0	1	315	0.00	29.736 
14:05	59.0	59.0	59.0	91	56.4	0	2	315	0.01	29.736 
14:10	59.2	59.2	59.2	92	56.9	0	1	315	0.00	29.736 
14:15	59.3	59.3	59.3	92	57.0	0	1	315	0.00	29.738 
14:20	59.3	59.3	59.3	92	57.0	0	2	315	0.00	29.738 
14:25	59.3	59.3	59.3	92	57.0	0	3	270	0.01	29.738 
14:30	59.3	59.3	59.3	92	57.0	0	1	270	0.00	29.735 
14:35	59.3	59.3	59.3	92	57.0	0	1	270	0.00	29.735 
14:40	59.3	59.3	59.3	92	57.0	0	1	270	0.00	29.735 
14:45	59.3	59.3	59.3	92	57.0	0	1	270	0.00	29.723 
14:50	59.5	59.5	59.5	92	57.2	0	1	270	0.00	29.723 
14:55	59.6	59.6	59.6	93	57.6	0	1	270	0.00	29.723 
15:00	59.8	59.8	59.8	93	57.8	0	1	270	0.00	29.717 
15:05	59.9	59.9	59.9	92	57.6	0	1	270	0.00	29.717 
15:10	59.9	59.9	59.9	92	57.6	0	1	270	0.01	29.717 
15:15	59.9	59.9	59.9	92	57.6	0	1	270	0.00	29.715 
15:20	60.1	60.1	60.1	92	57.8	0	1	270	0.00	29.715 
15:25	60.2	60.2	60.2	92	57.9	0	1	270	0.00	29.715 
15:30	60.4	60.4	60.4	92	58.1	0	1	270	0.00	29.715 
15:35	60.5	60.5	60.5	91	57.9	0	1	270	0.00	29.715 
15:40	60.4	60.4	60.4	90	57.4	0	1	270	0.00	29.715 
15:45	60.4	60.4	60.4	90	57.4	0	0	---	0.00	29.713 
15:50	60.4	60.4	60.4	90	57.4	0	1	270	0.00	29.713 
15:55	60.1	60.1	60.1	87	56.2	0	1	270	0.00	29.713 
16:00	59.9	59.9	59.9	87	56.0	0	1	270	0.01	29.718 
16:05	60.1	60.1	60.1	88	56.5	0	0	---	0.00	29.718 
16:10	60.2	60.2	60.2	89	56.9	0	0	---	0.00	29.718 
16:15	60.2	60.2	60.2	88	56.6	0	0	---	0.00	29.713 
16:20	60.1	60.1	60.1	88	56.5	0	1	270	0.00	29.713 
16:25	60.1	60.1	60.1	89	56.8	0	0	---	0.00	29.713 
16:30	60.1	60.1	60.1	88	56.5	0	0	---	0.00	29.705 
16:35	59.9	59.9	59.9	86	55.7	0	0	---	0.00	29.705 
16:40	59.8	59.8	59.8	87	55.9	0	1	270	0.00	29.705 
16:45	59.6	59.6	59.6	87	55.7	0	0	---	0.00	29.711 
16:50	59.8	59.8	59.8	88	56.2	0	0	---	0.00	29.711 
16:55	59.8	59.8	59.8	89	56.5	0	0	---	0.01	29.711 
17:00	59.9	59.9	59.9	90	57.0	0	0	---	0.00	29.718 
17:05	59.9	59.9	59.9	90	57.0	0	0	---	0.00	29.718 
17:10	60.1	60.1	60.1	91	57.5	0	0	---	0.00	29.718 
17:15	60.4	60.4	60.4	92	58.1	0	1	270	0.00	29.718 
17:20	60.5	60.5	60.5	92	58.2	0	1	270	0.00	29.718 
17:25	60.4	60.4	60.4	90	57.4	0	1	270	0.00	29.718 
17:30	60.5	60.5	60.5	89	57.2	0	1	270	0.00	29.718 
17:35	60.5	60.5	60.5	90	57.5	0	0	---	0.00	29.718 
17:40	60.5	60.5	60.5	90	57.5	0	2	270	0.00	29.718 
17:45	60.4	60.4	60.4	89	57.1	0	1	270	0.00	29.718 
17:50	60.4	60.4	60.4	90	57.4	0	0	---	0.00	29.718 
17:55	60.4	60.4	60.4	91	57.8	0	0	---	0.00	29.718 
18:00	60.4	60.4	60.4	91	57.8	0	1	270	0.00	29.713 
18:05	60.4	60.4	60.4	90	57.4	0	0	---	0.00	29.713 
18:10	60.4	60.4	60.4	91	57.8	0	1	270	0.00	29.713 
18:15	60.4	60.4	60.4	91	57.8	0	1	270	0.00	29.703 
18:20	60.4	60.4	60.4	91	57.8	0	1	270	0.00	29.703 
18:25	60.4	60.4	60.4	91	57.8	0	1	270	0.00	29.703 
18:30	60.4	60.4	60.4	90	57.4	0	2	270	0.00	29.704 
18:35	60.2	60.2	60.2	90	57.3	0	2	270	0.00	29.704 
18:40	60.1	60.1	60.1	90	57.2	0	2	270	0.00	29.704 
18:45	60.1	60.1	60.1	90	57.2	0	2	270	0.00	29.706 
18:50	59.9	59.9	59.9	90	57.0	0	2	270	0.00	29.706 
18:55	59.9	59.9	59.9	91	57.3	0	1	270	0.00	29.706 
19:00	59.9	59.9	59.9	92	57.6	0	1	270	0.00	29.716 
19:05	59.9	59.9	59.9	92	57.6	0	2	270	0.00	29.716 
19:10	59.8	59.8	59.8	92	57.5	0	2	270	0.00	29.716 
19:15	59.8	59.8	59.8	92	57.5	0	1	270	0.00	29.714 
19:20	59.6	59.6	59.6	92	57.3	0	1	270	0.00	29.714 
19:25	59.6	59.6	59.6	92	57.3	0	2	270	0.00	29.714 
19:30	59.6	59.6	59.6	93	57.6	0	1	270	0.00	29.714 
19:35	59.6	59.6	59.6	93	57.6	0	1	270	0.00	29.714 
19:40	59.6	59.6	59.6	93	57.6	0	1	270	0.00	29.714 
19:45	59.6	59.6	59.6	93	57.6	0	2	270	0.00	29.719 
19:50	59.5	59.5	59.5	93	57.5	0	1	270	0.00	29.719 
19:55	59.5	59.5	59.5	94	57.8	0	1	270	0.00	29.719 
20:00	59.5	59.5	59.5	94	57.8	0	2	270	0.00	29.724 
20:05	59.5	59.5	59.5	94	57.8	0	2	270	0.00	29.724 
20:10	59.5	59.5	59.5	94	57.8	0	1	270	0.00	29.724 
20:15	59.5	59.5	59.5	94	57.8	0	1	270	0.00	29.723 
20:20	59.5	59.5	59.5	94	57.8	0	2	270	0.00	29.723 
20:25	59.5	59.5	59.5	94	57.8	0	2	270	0.00	29.723 
20:30	59.3	59.3	59.3	94	57.6	0	2	270	0.00	29.724 
20:35	59.3	59.3	59.3	94	57.6	0	3	270	0.00	29.724 
20:40	59.3	59.3	59.3	94	57.6	0	3	45	0.00	29.724 
20:45	59.3	59.3	59.3	95	57.9	0	2	270	0.00	29.723 
20:50	59.3	59.3	59.3	94	57.6	1	2	270	0.00	29.723 
20:55	59.3	59.3	59.3	94	57.6	0	1	270	0.00	29.723 
21:00	59.2	59.2	59.2	95	57.8	0	2	270	0.00	29.722 
21:05	59.2	59.2	59.2	95	57.8	1	3	248	0.00	29.722 
21:10	59.2	59.2	59.2	95	57.8	0	2	248	0.00	29.722 
21:15	59.2	59.2	59.2	95	57.8	0	1	248	0.00	29.721 
21:20	59.2	59.2	59.2	95	57.8	0	2	248	0.00	29.721 
21:25	59.2	59.2	59.2	95	57.8	0	1	248	0.00	29.721 
21:30	59.0	59.0	59.0	95	57.6	0	1	248	0.00	29.726 
21:35	59.0	59.0	59.0	95	57.6	0	1	248	0.00	29.726 
21:40	59.0	59.0	59.0	95	57.6	0	2	248	0.00	29.726 
21:45	58.9	58.9	58.9	95	57.5	1	3	248	0.00	29.726 
21:50	58.9	58.9	58.9	95	57.5	0	1	248	0.00	29.726 
21:55	58.9	58.9	58.9	95	57.5	0	2	248	0.00	29.726 
22:00	58.7	58.7	58.7	95	57.3	0	2	248	0.00	29.729 
22:05	58.6	58.6	58.6	95	57.2	0	1	248	0.00	29.729 
22:10	58.6	58.6	58.6	95	57.2	1	2	248	0.00	29.729 
22:15	58.4	58.4	58.4	95	57.0	0	2	248	0.00	29.728 
22:20	58.4	58.4	58.4	95	57.0	0	1	248	0.00	29.728 
22:25	58.3	58.3	58.3	95	56.9	0	2	248	0.00	29.728 
22:30	58.3	58.3	58.3	95	56.9	0	2	248	0.00	29.727 
22:35	58.1	58.1	58.1	95	56.7	0	3	248	0.00	29.727 
22:40	58.0	58.0	58.0	95	56.6	1	4	248	0.00	29.727 
22:45	58.0	58.0	58.0	95	56.6	1	3	248	0.00	29.729 
22:50	57.8	57.8	57.8	95	56.4	1	3	248	0.00	29.729 
22:55	57.8	57.8	57.8	95	56.4	0	2	248	0.00	29.729 
23:00	57.8	57.8	57.8	95	56.4	1	2	248	0.00	29.729 
23:05	57.6	57.6	57.6	95	56.2	1	2	248	0.00	29.729 
23:10	57.5	57.5	57.5	95	56.1	0	1	248	0.00	29.729 
23:15	57.5	57.5	57.5	95	56.1	1	4	248	0.00	29.726 
23:20	57.5	57.5	57.5	95	56.1	1	2	248	0.00	29.726 
23:25	57.3	57.3	57.3	95	55.9	0	2	248	0.00	29.726 
23:30	57.3	57.3	57.3	95	55.9	0	2	292	0.00	29.729 
23:35	57.2	57.2	57.2	95	55.8	0	1	292	0.00	29.729 
23:40	57.0	57.0	57.0	95	55.6	0	1	292	0.00	29.729 
23:45	57.0	57.0	57.0	95	55.6	0	2	292	0.00	29.728 
23:50	57.0	57.0	57.0	95	55.6	1	3	270	0.00	29.728 
23:55	56.9	56.9	56.9	95	55.5	0	2	270	0.00	29.728 

CoCoRaHS
IN-AL-39
A2 Web Hosting
Creative Commons License
GoDaddy
Look for:

loaded 2017-10-19 20:14:17 • last modified 2010-11-18 10:43:29
Privacy PolicyDisclaimer
• wx.awcolley.com is powered by PmWiki v.2002016 •
• all content (unless otherwise noted) © 2017 A W Colley